Terminal Aerodrome Forecast
Issued by NWS

Home | Current Version | Previous Version | Text Only | Print | Product List | Glossary Off
Versions: 1 2 3 4 5 6 7 8 9 10 11 12 13 14 15

000
FTUS43 KOAX 190536
TAFCDR
TAF
KCDR 190536Z 1906/2006 29014KT P6SM SCT070 BKN120
     FM190800 29008KT P6SM VCFG SCT008 OVC015
     FM191400 29012KT P6SM SCT015 BKN025
     FM191900 30010KT P6SM SCT025 BKN050
     FM200200 VRB04KT P6SM SCT150=

USA.gov is the U.S. government's official web portal to all federal, state and local government web resources and services.